Time;durP1;ratioP1;P1;durP2;ratioP2;P2;SDS_P1;SDS_P2;PMS_P1;PMS_P2;Temp;Humidity;BMP_temperature;BMP_pressure;BME280_temperature;BME280_humidity;BME280_pressure;Samples;Min_cycle;Max_cycle;Signal;HPM_P1;HPM_P2
2024/02/22 00:00:54;;;;;;;0.63;0.30;;;;;;;10.21;53.02;151241.16;10583023;28;20075;-75
2024/02/22 00:05:56;;;;;;;0.32;0.20;;;;;;;10.15;54.26;151225.69;10584571;28;20499;-76
2024/02/22 00:10:58;;;;;;;1.08;0.30;;;;;;;10.26;53.40;151254.09;10590760;28;20054;-76
2024/02/22 00:16:05;;;;;;;0.28;0.20;;;;;;;10.26;54.08;151255.38;10594058;28;20059;-76
2024/02/22 00:21:13;;;;;;;0.10;0.10;;;;;;;10.25;53.32;151251.53;10575602;28;20069;-75
2024/02/22 00:26:15;;;;;;;0.20;0.13;;;;;;;10.35;53.87;151277.34;10574631;28;20051;-75
2024/02/22 00:31:17;;;;;;;0.20;0.13;;;;;;;10.11;54.69;151217.91;10588566;28;20075;-76
2024/02/22 00:36:20;;;;;;;0.40;0.20;;;;;;;10.00;55.85;151189.50;10571024;28;20135;-75
2024/02/22 00:41:22;;;;;;;0.10;0.10;;;;;;;9.78;56.52;151134.06;10589606;28;20051;-77
2024/02/22 00:46:24;;;;;;;0.17;0.10;;;;;;;9.78;56.22;151132.72;10596255;28;20039;-75
2024/02/22 00:51:26;;;;;;;0.20;0.10;;;;;;;9.85;56.35;151150.81;10595072;28;20081;-75
2024/02/22 00:56:27;;;;;;;0.20;0.20;;;;;;;9.76;57.62;151127.59;10593734;28;20040;-76
2024/02/22 01:01:29;;;;;;;0.60;0.15;;;;;;;9.97;60.62;151180.50;10594356;28;20406;-76
2024/02/22 01:06:31;;;;;;;0.40;0.15;;;;;;;9.70;61.42;151112.13;10587209;28;20046;-75
2024/02/22 01:11:33;;;;;;;0.30;0.30;;;;;;;9.38;61.87;151030.81;10590678;28;20043;-75
2024/02/22 01:16:36;;;;;;;0.17;0.17;;;;;;;9.48;61.67;151057.94;10591922;28;20044;-77
2024/02/22 01:21:38;;;;;;;0.30;0.20;;;;;;;9.46;62.88;151051.44;10591689;28;20145;-75
2024/02/22 01:26:39;;;;;;;1.08;0.20;;;;;;;9.35;64.50;151025.66;10569124;28;20515;-75
2024/02/22 01:31:41;;;;;;;0.28;0.20;;;;;;;9.29;67.23;151010.16;10584554;28;20043;-76
2024/02/22 01:36:43;;;;;;;0.30;0.10;;;;;;;9.25;68.27;150999.88;10584138;28;20035;-76
2024/02/22 01:41:45;;;;;;;0.43;0.20;;;;;;;9.22;68.00;150992.13;10584432;28;20078;-75
2024/02/22 01:46:47;;;;;;;0.20;0.15;;;;;;;9.05;67.80;150949.56;10584237;28;20045;-75
2024/02/22 01:51:57;;;;;;;0.30;0.20;;;;;;;9.54;59.55;151072.09;10566913;28;20115;-76
2024/02/22 01:56:59;;;;;;;0.47;0.30;;;;;;;10.03;56.51;151195.97;10583748;28;20447;-76
2024/02/22 02:02:01;;;;;;;0.38;0.30;;;;;;;10.43;56.00;151296.72;10565377;28;20051;-76
2024/02/22 02:07:03;;;;;;;1.02;0.30;;;;;;;10.58;56.49;151336.75;10565385;28;20142;-76
2024/02/22 02:12:06;;;;;;;0.47;0.35;;;;;;;10.28;59.52;151259.28;10583410;28;20039;-75
2024/02/22 02:17:08;;;;;;;0.95;0.55;;;;;;;10.11;62.46;151216.63;10568131;28;20062;-76
2024/02/22 02:22:48;;;;;;;0.57;0.40;;;;;;;10.24;61.87;151250.25;10566633;28;20050;-74
2024/02/22 02:27:49;;;;;;;0.38;0.20;;;;;;;9.94;64.64;151174.03;10563681;28;20043;-76
2024/02/22 02:32:51;;;;;;;0.52;0.45;;;;;;;9.98;66.24;151183.06;10583789;28;20163;-75
2024/02/22 02:37:57;;;;;;;0.93;0.50;;;;;;;9.89;67.22;151159.84;10583131;28;20050;-76
2024/02/22 02:43:00;;;;;;;0.55;0.40;;;;;;;9.90;66.80;151163.72;10564159;28;20071;-76
2024/02/22 02:48:01;;;;;;;0.80;0.43;;;;;;;9.65;70.11;151100.50;10582801;28;20039;-77
2024/02/22 02:53:03;;;;;;;0.75;0.40;;;;;;;9.47;71.40;151055.31;10582826;28;20043;-75
2024/02/22 02:58:05;;;;;;;0.30;0.30;;;;;;;9.71;70.48;151115.97;10583450;28;20112;-75
2024/02/22 03:03:07;;;;;;;2.05;0.50;;;;;;;9.55;72.20;151075.94;10563398;28;20044;-76
2024/02/22 03:08:09;;;;;;;1.05;0.40;;;;;;;9.44;74.95;151047.59;10582784;28;20445;-76
2024/02/22 03:13:11;;;;;;;0.90;0.40;;;;;;;9.39;75.72;151033.41;10581838;28;20043;-76
2024/02/22 03:18:13;;;;;;;0.40;0.40;;;;;;;9.17;78.63;150979.25;10582095;28;20046;-76
2024/02/22 03:23:15;;;;;;;1.10;0.40;;;;;;;9.14;78.87;150970.19;10581700;28;20035;-76
2024/02/22 03:28:19;;;;;;;0.50;0.30;;;;;;;8.95;81.29;150923.78;10581627;28;20197;-76
2024/02/22 03:33:21;;;;;;;0.55;0.40;;;;;;;9.03;80.32;150944.44;10581427;28;20487;-76
2024/02/22 03:38:23;;;;;;;1.20;0.40;;;;;;;9.11;80.39;150963.72;10580961;28;20043;-76
2024/02/22 03:43:25;;;;;;;0.50;0.50;;;;;;;9.01;80.31;150939.25;10586877;28;20040;-77
2024/02/22 03:48:26;;;;;;;0.60;0.40;;;;;;;8.78;83.69;150881.22;10589333;28;20114;-76
2024/02/22 03:53:29;;;;;;;0.77;0.35;;;;;;;8.80;82.06;150885.06;10589714;28;20123;-77
2024/02/22 03:58:30;;;;;;;0.75;0.38;;;;;;;8.71;83.74;150861.88;10589084;28;20048;-76
2024/02/22 04:03:34;;;;;;;1.33;0.60;;;;;;;8.70;83.46;150859.28;10589332;28;20031;-76
2024/02/22 04:08:35;;;;;;;0.95;0.40;;;;;;;8.74;83.73;150870.91;10589829;28;20044;-75
2024/02/22 04:13:38;;;;;;;1.10;0.70;;;;;;;8.80;83.17;150885.06;10591480;28;20063;-77
2024/02/22 04:18:40;;;;;;;1.40;0.50;;;;;;;8.71;83.91;150861.88;10570811;28;20538;-76
2024/02/22 04:23:41;;;;;;;1.30;0.50;;;;;;;8.73;83.71;150868.34;10589458;28;20039;-77
2024/02/22 04:28:43;;;;;;;1.02;0.55;;;;;;;8.75;83.38;150872.19;10570756;28;20134;-77
2024/02/22 04:33:45;;;;;;;1.10;0.50;;;;;;;8.72;84.54;150865.75;10587839;28;20448;-76
2024/02/22 04:38:47;;;;;;;0.40;0.40;;;;;;;8.68;84.81;150854.16;10588842;28;20411;-75
2024/02/22 04:43:49;;;;;;;0.85;0.63;;;;;;;8.62;85.23;150839.94;10590087;28;20036;-76
2024/02/22 04:48:51;;;;;;;1.30;0.40;;;;;;;8.60;85.85;150834.81;10589296;28;20035;-76
2024/02/22 04:53:53;;;;;;;1.35;0.60;;;;;;;8.67;85.09;150852.84;10588415;28;20480;-76
2024/02/22 04:58:55;;;;;;;0.52;0.30;;;;;;;8.93;83.75;150918.59;10570397;28;20069;-75
2024/02/22 05:03:58;;;;;;;0.75;0.40;;;;;;;8.62;85.78;150838.66;10587746;28;20066;-76
2024/02/22 05:09:00;;;;;;;0.60;0.40;;;;;;;8.62;86.12;150838.66;10587400;28;20114;-76
2024/02/22 05:14:02;;;;;;;0.40;0.40;;;;;;;8.72;85.68;150864.44;10568822;28;20381;-76
2024/02/22 05:19:04;;;;;;;0.55;0.35;;;;;;;8.56;87.98;150825.78;10586564;28;20046;-77
2024/02/22 05:24:05;;;;;;;0.43;0.43;;;;;;;8.48;89.52;150805.13;10586020;28;20046;-77
2024/02/22 05:29:08;;;;;;;0.60;0.30;;;;;;;8.30;91.30;150759.97;10585588;28;20491;-76
2024/02/22 05:34:10;;;;;;;0.60;0.30;;;;;;;8.57;90.04;150828.34;10568499;28;20035;-76
2024/02/22 05:39:12;;;;;;;0.57;0.40;;;;;;;8.62;90.29;150838.66;10586173;28;20039;-76
2024/02/22 05:44:17;;;;;;;0.50;0.28;;;;;;;8.61;90.00;150836.09;10567290;28;20044;-76
2024/02/22 05:49:20;;;;;;;0.43;0.40;;;;;;;8.65;90.19;150846.41;10567480;28;20100;-77
2024/02/22 05:54:22;;;;;;;1.63;0.70;;;;;;;8.65;90.80;150846.41;10584688;28;20031;-76
2024/02/22 05:59:24;;;;;;;0.90;0.50;;;;;;;8.80;89.77;150885.06;10586503;28;20036;-76
2024/02/22 06:04:26;;;;;;;0.45;0.40;;;;;;;8.67;91.45;150851.53;10583800;28;20110;-76
2024/02/22 06:09:27;;;;;;;0.63;0.40;;;;;;;8.71;91.94;150863.16;10584619;28;20044;-76
2024/02/22 06:14:29;;;;;;;0.57;0.40;;;;;;;8.57;94.01;150827.06;10583849;28;20407;-76
2024/02/22 06:19:31;;;;;;;0.73;0.30;;;;;;;8.54;95.37;150820.66;10584513;28;20130;-77
2024/02/22 06:24:33;;;;;;;0.43;0.40;;;;;;;8.59;94.31;150833.53;10583700;28;20073;-76
2024/02/22 06:29:35;;;;;;;0.43;0.32;;;;;;;8.57;95.62;150827.06;10583111;28;20047;-76
2024/02/22 06:34:36;;;;;;;0.32;0.30;;;;;;;8.77;93.11;150878.66;10584208;28;20509;-75
2024/02/22 06:39:39;;;;;;;0.57;0.43;;;;;;;8.61;95.48;150836.09;10583426;28;20047;-75
2024/02/22 06:44:45;;;;;;;0.52;0.40;;;;;;;8.83;92.96;150894.09;10564945;28;20131;-75
2024/02/22 06:49:47;;;;;;;1.08;0.88;;;;;;;8.86;93.59;150899.28;10582614;28;20089;-76
2024/02/22 06:54:53;;;;;;;0.60;0.30;;;;;;;8.72;94.59;150864.44;10564265;28;20054;-77
2024/02/22 06:59:54;;;;;;;0.63;0.30;;;;;;;8.75;95.07;150872.19;10582788;28;20038;-76
2024/02/22 07:04:56;;;;;;;0.55;0.40;;;;;;;8.90;94.28;150910.88;10582260;28;20042;-76
2024/02/22 07:09:58;;;;;;;0.30;0.20;;;;;;;8.91;93.38;150913.47;10582989;28;20492;-75
2024/02/22 07:15:00;;;;;;;0.40;0.22;;;;;;;9.07;91.65;150953.41;10582190;28;20477;-76
2024/02/22 07:20:01;;;;;;;0.38;0.30;;;;;;;8.99;93.48;150934.09;10591397;28;20118;-76
2024/02/22 07:25:06;;;;;;;0.32;0.20;;;;;;;9.05;92.69;150949.56;10591099;28;20052;-75
2024/02/22 07:30:08;;;;;;;0.47;0.35;;;;;;;9.05;94.27;150949.56;10592473;28;20495;-75
2024/02/22 07:35:10;;;;;;;0.63;0.40;;;;;;;9.18;92.83;150980.53;10592573;28;20056;-76
2024/02/22 07:40:12;;;;;;;0.70;0.40;;;;;;;9.21;93.00;150989.56;10592742;28;20127;-76
2024/02/22 07:45:14;;;;;;;0.52;0.30;;;;;;;9.19;93.76;150984.38;10591299;28;20118;-77
2024/02/22 07:50:16;;;;;;;1.67;1.58;;;;;;;9.26;94.06;151001.16;10590311;28;20054;-76
2024/02/22 07:55:18;;;;;;;0.40;0.32;;;;;;;9.09;95.66;150958.59;10590259;28;20035;-75
2024/02/22 08:00:20;;;;;;;0.70;0.47;;;;;;;9.04;99.30;150945.72;10571922;28;20091;-75
2024/02/22 08:05:22;;;;;;;0.52;0.30;;;;;;;9.17;98.30;150979.25;10571871;28;20044;-75
2024/02/22 08:10:24;;;;;;;0.20;0.20;;;;;;;9.31;97.71;151015.34;10571766;28;20108;-75
2024/02/22 08:15:26;;;;;;;1.38;0.30;;;;;;;9.41;96.72;151039.84;10590351;28;20051;-74
2024/02/22 08:20:29;;;;;;;0.38;0.20;;;;;;;9.42;96.01;151042.41;10589870;28;20071;-75
2024/02/22 08:25:31;;;;;;;0.65;0.35;;;;;;;9.46;96.82;151051.44;10589729;28;20127;-75
2024/02/22 08:30:33;;;;;;;0.22;0.20;;;;;;;9.49;97.04;151060.50;10589229;28;20480;-76
2024/02/22 08:35:35;;;;;;;0.60;0.40;;;;;;;9.68;94.73;151106.94;10571072;28;20070;-75
2024/02/22 08:40:37;;;;;;;0.60;0.40;;;;;;;9.71;95.33;151115.97;10590391;28;20040;-76
2024/02/22 08:45:41;;;;;;;0.20;0.20;;;;;;;9.66;96.49;151103.09;10591113;28;20380;-75
2024/02/22 08:50:43;;;;;;;0.50;0.40;;;;;;;10.08;89.29;151210.16;10590975;28;20067;-76
2024/02/22 08:55:45;;;;;;;0.90;0.30;;;;;;;9.86;91.50;151153.38;10590729;28;20044;-76
2024/02/22 09:00:47;;;;;;;0.40;0.30;;;;;;;9.91;90.17;151166.28;10589913;28;20046;-76
2024/02/22 09:05:49;;;;;;;0.30;0.20;;;;;;;10.07;87.60;151207.59;10590810;28;20039;-76
2024/02/22 09:10:54;;;;;;;0.20;0.20;;;;;;;10.29;86.42;151261.84;10591086;28;20071;-76
2024/02/22 09:15:56;;;;;;;0.20;0.20;;;;;;;10.26;87.97;151255.38;10589967;28;20461;-76
2024/02/22 09:20:59;;;;;;;0.40;0.20;;;;;;;10.32;85.25;151269.63;10571333;28;20044;-75
2024/02/22 09:26:01;;;;;;;0.25;0.25;;;;;;;10.38;84.80;151285.09;10571892;28;20411;-74
2024/02/22 09:31:03;;;;;;;0.43;0.28;;;;;;;10.50;84.13;151314.81;10588731;28;20039;-74
2024/02/22 09:36:05;;;;;;;0.10;0.10;;;;;;;10.40;85.82;151290.22;10588535;28;20071;-74
2024/02/22 09:41:09;;;;;;;0.20;0.20;;;;;;;10.54;84.29;151325.13;10587727;28;20093;-76
2024/02/22 09:46:11;;;;;;;0.60;0.20;;;;;;;10.50;85.11;151314.81;10587141;28;20154;-76
2024/02/22 09:51:14;;;;;;;0.20;0.15;;;;;;;10.72;83.74;151371.63;10570519;28;20043;-76
2024/02/22 09:56:16;;;;;;;0.20;0.20;;;;;;;10.66;84.55;151354.81;10568729;28;20476;-74
2024/02/22 10:01:19;;;;;;;0.20;0.20;;;;;;;10.78;84.42;151387.09;10568751;28;20410;-75
2024/02/22 10:06:24;;;;;;;0.25;0.25;;;;;;;10.90;83.28;151416.81;10587843;28;20122;-76
2024/02/22 10:11:26;;;;;;;0.45;0.22;;;;;;;10.97;83.43;151434.88;10588196;28;20502;-75
2024/02/22 10:16:28;;;;;;;0.82;0.30;;;;;;;11.00;85.37;151442.63;10585839;28;20035;-75
2024/02/22 10:21:30;;;;;;;0.40;0.20;;;;;;;11.24;82.04;151502.03;10568377;28;20043;-77
2024/02/22 10:26:31;;;;;;;0.20;0.10;;;;;;;11.48;79.43;151564.06;10588422;28;20487;-75
2024/02/22 10:31:39;;;;;;;0.80;0.10;;;;;;;11.45;81.32;151556.31;10568059;28;20043;-75
2024/02/22 10:36:45;;;;;;;0.20;0.20;;;;;;;11.83;79.54;151652.00;10567907;28;20039;-76
2024/02/22 10:41:48;;;;;;;0.30;0.30;;;;;;;11.78;79.95;151640.31;10588641;28;20075;-76
2024/02/22 10:46:51;;;;;;;0.93;0.30;;;;;;;11.82;81.90;151650.72;10585826;28;20601;-76
2024/02/22 10:51:55;;;;;;;0.30;0.20;;;;;;;11.81;79.40;151646.75;10566871;28;20054;-76
2024/02/22 10:56:58;;;;;;;0.10;0.10;;;;;;;11.90;78.29;151670.06;10584698;28;20040;-75
2024/02/22 11:02:03;;;;;;;0.20;0.20;;;;;;;11.95;79.11;151682.97;10567535;28;20179;-76
2024/02/22 11:07:05;;;;;;;0.52;0.10;;;;;;;11.95;79.08;151682.97;10584190;28;20126;-76
2024/02/22 11:12:10;;;;;;;0.20;0.20;;;;;;;11.90;77.65;151670.06;10566984;28;20570;-74
2024/02/22 11:17:26;;;;;;;0.15;0.15;;;;;;;11.98;78.02;151690.75;10566231;28;20044;-74
2024/02/22 11:22:36;;;;;;;0.00;0.00;;;;;;;11.89;77.70;151667.47;10566199;28;20039;-74
2024/02/22 11:27:38;;;;;;;0.13;0.13;;;;;;;11.97;78.74;151686.88;10585649;28;20036;-75
2024/02/22 11:32:41;;;;;;;0.10;0.10;;;;;;;11.99;79.12;151692.03;10583756;28;20047;-73
2024/02/22 11:37:43;;;;;;;0.20;0.10;;;;;;;12.08;77.40;151715.28;10583486;28;20060;-73
2024/02/22 11:42:54;;;;;;;0.32;0.20;;;;;;;12.21;76.66;151747.63;10566113;28;20047;-74
2024/02/22 11:47:56;;;;;;;0.20;0.10;;;;;;;12.24;76.10;151755.38;10585610;28;20403;-74
2024/02/22 11:52:58;;;;;;;0.03;0.00;;;;;;;12.32;75.41;151776.09;10565786;28;20100;-74
2024/02/22 11:58:02;;;;;;;0.20;0.20;;;;;;;12.24;75.91;151756.69;10567838;28;20491;-74
2024/02/22 12:03:04;;;;;;;0.35;0.10;;;;;;;12.34;76.24;151782.53;10569487;28;20060;-73
2024/02/22 12:08:06;;;;;;;0.10;0.10;;;;;;;12.36;76.29;151786.44;10591674;28;20066;-74
2024/02/22 12:13:08;;;;;;;0.50;0.20;;;;;;;12.50;76.50;151822.63;10593363;28;20389;-75
2024/02/22 12:18:14;;;;;;;0.00;0.00;;;;;;;12.62;73.74;151853.66;10591034;28;20464;-75
2024/02/22 12:23:16;;;;;;;0.13;0.13;;;;;;;12.68;73.88;151867.88;10590939;28;20046;-73
2024/02/22 12:28:19;;;;;;;0.10;0.10;;;;;;;12.95;72.29;151936.41;10592162;28;20484;-76
2024/02/22 12:33:24;;;;;;;0.10;0.10;;;;;;;13.17;71.78;151990.75;10594378;27;20051;-77
2024/02/22 12:38:26;;;;;;;0.17;0.10;;;;;;;13.28;71.69;152019.25;10657675;27;20035;-77
2024/02/22 12:43:28;;;;;;;0.10;0.10;;;;;;;13.18;70.45;151993.34;10650713;27;20047;-76
2024/02/22 12:48:30;;;;;;;0.08;0.08;;;;;;;13.10;71.24;151975.25;10612741;27;20580;-76
2024/02/22 12:53:33;;;;;;;0.10;0.10;;;;;;;13.24;73.28;152008.94;10639910;27;20054;-76
2024/02/22 12:58:36;;;;;;;1.00;0.55;;;;;;;13.29;71.31;152023.16;10611220;27;20039;-77
2024/02/22 13:03:39;;;;;;;0.20;0.20;;;;;;;13.25;70.94;152012.81;10634786;27;20478;-77
2024/02/22 13:08:44;;;;;;;0.35;0.17;;;;;;;13.25;70.97;152011.50;10639730;27;20107;-77
2024/02/22 13:13:47;;;;;;;0.10;0.10;;;;;;;13.04;71.06;151959.69;10659145;27;20087;-76
2024/02/22 13:18:49;;;;;;;0.00;0.00;;;;;;;12.97;71.91;151941.63;10646843;27;20523;-75
2024/02/22 13:23:52;;;;;;;0.10;0.10;;;;;;;12.91;71.97;151926.06;10616113;27;20528;-76
2024/02/22 13:28:54;;;;;;;0.05;0.05;;;;;;;12.88;72.85;151919.63;10634514;27;20039;-77
2024/02/22 13:33:55;;;;;;;0.22;0.15;;;;;;;13.11;72.31;151976.53;10634561;27;20066;-76
2024/02/22 13:38:57;;;;;;;0.28;0.15;;;;;;;13.33;72.54;152032.22;10618594;27;20070;-74
2024/02/22 13:43:59;;;;;;;0.20;0.20;;;;;;;13.41;71.10;152051.59;10640069;27;20039;-77
2024/02/22 13:49:01;;;;;;;0.05;0.05;;;;;;;13.39;70.77;152047.72;10657932;27;20043;-76
2024/02/22 13:54:04;;;;;;;0.20;0.20;;;;;;;13.45;71.08;152063.25;10656648;27;20039;-76
2024/02/22 13:59:06;;;;;;;0.73;0.17;;;;;;;13.40;70.86;152049.03;10620167;27;20061;-76
2024/02/22 14:04:09;;;;;;;0.20;0.20;;;;;;;13.46;70.96;152064.53;10590060;28;20106;-77
2024/02/22 14:09:11;;;;;;;0.38;0.20;;;;;;;13.65;70.03;152112.44;10587143;28;20135;-76
2024/02/22 14:14:13;;;;;;;0.10;0.10;;;;;;;13.67;70.19;152118.88;10578734;27;20039;-77
2024/02/22 14:19:18;;;;;;;0.45;0.10;;;;;;;13.54;71.87;152085.25;10609853;27;20039;-76
2024/02/22 14:24:20;;;;;;;0.20;0.20;;;;;;;13.58;70.56;152096.88;10628165;27;20046;-76
2024/02/22 14:29:22;;;;;;;0.20;0.17;;;;;;;13.56;70.67;152091.72;10609254;27;20067;-77
2024/02/22 14:34:24;;;;;;;0.20;0.15;;;;;;;13.44;70.91;152059.38;10627705;27;20075;-76
2024/02/22 14:39:26;;;;;;;0.32;0.20;;;;;;;13.36;72.52;152039.94;10608489;27;20086;-76
2024/02/22 14:44:28;;;;;;;0.17;0.17;;;;;;;13.23;72.77;152006.31;10627173;27;20142;-77
2024/02/22 14:49:30;;;;;;;0.10;0.10;;;;;;;13.14;72.79;151984.28;10629495;27;20123;-76
2024/02/22 14:54:31;;;;;;;0.38;0.20;;;;;;;13.24;73.11;152010.22;10609799;27;20114;-75
2024/02/22 14:59:34;;;;;;;0.10;0.10;;;;;;;13.21;73.11;152001.13;10609734;27;20043;-75
2024/02/22 15:04:36;;;;;;;0.10;0.10;;;;;;;13.19;73.71;151997.19;10626136;27;20125;-77
2024/02/22 15:09:38;;;;;;;0.20;0.20;;;;;;;13.04;74.21;151959.69;10607903;27;20483;-76
2024/02/22 15:14:40;;;;;;;0.17;0.17;;;;;;;13.05;74.70;151961.00;10607899;28;20104;-77
2024/02/22 15:19:42;;;;;;;0.10;0.10;;;;;;;13.01;73.97;151950.63;10626170;28;20062;-76
2024/02/22 15:24:46;;;;;;;3.78;0.15;;;;;;;12.90;74.86;151923.50;10626178;27;20043;-76
2024/02/22 15:29:48;;;;;;;0.20;0.17;;;;;;;13.05;74.63;151962.28;10668551;27;20042;-77
2024/02/22 15:34:50;;;;;;;12.50;5.28;;;;;;;12.84;75.26;151909.28;10667557;27;20495;-77
2024/02/22 15:39:52;;;;;;;1.25;0.80;;;;;;;12.99;74.83;151946.78;10675624;27;20091;-77
2024/02/22 15:44:54;;;;;;;2.35;1.40;;;;;;;12.87;75.86;151915.72;10659677;27;20049;-77
2024/02/22 15:49:56;;;;;;;0.85;0.50;;;;;;;12.75;77.24;151884.66;10679233;27;20070;-76
2024/02/22 15:54:58;;;;;;;0.28;0.28;;;;;;;12.80;75.92;151898.94;10678717;27;20031;-77
2024/02/22 16:00:00;;;;;;;0.10;0.10;;;;;;;12.79;75.91;151895.00;10676410;27;20505;-76
2024/02/22 16:05:09;;;;;;;0.20;0.20;;;;;;;12.59;76.88;151844.59;10678120;27;20083;-77
2024/02/22 16:10:11;;;;;;;0.20;0.20;;;;;;;12.63;77.00;151854.94;10676706;27;20047;-77
2024/02/22 16:15:13;;;;;;;0.20;0.20;;;;;;;12.40;80.19;151795.50;10658425;27;20042;-78
2024/02/22 16:20:15;;;;;;;0.15;0.15;;;;;;;12.33;82.31;151778.66;10660303;27;20047;-78
2024/02/22 16:25:16;;;;;;;0.20;0.20;;;;;;;11.99;84.79;151693.31;10677789;27;20039;-78
2024/02/22 16:30:18;;;;;;;0.17;0.10;;;;;;;12.07;83.81;151712.72;10657995;27;20042;-76
2024/02/22 16:35:20;;;;;;;1.13;0.98;;;;;;;11.95;84.64;151682.97;10679105;27;20034;-77
2024/02/22 16:40:22;;;;;;;0.30;0.20;;;;;;;11.72;86.20;151624.78;10678144;27;20458;-78
2024/02/22 16:45:23;;;;;;;0.90;0.60;;;;;;;11.87;85.56;151662.34;10678915;27;20079;-77
2024/02/22 16:50:25;;;;;;;0.30;0.20;;;;;;;11.89;85.55;151667.47;10678008;27;20098;-78
2024/02/22 16:55:28;;;;;;;0.40;0.40;;;;;;;11.98;85.06;151689.47;10678220;27;20078;-78
2024/02/22 17:00:30;;;;;;;1.05;0.80;;;;;;;11.86;85.68;151659.72;10667598;27;20045;-79
2024/02/22 17:05:32;;;;;;;1.23;0.65;;;;;;;11.59;87.77;151592.47;10681529;27;20035;-77
2024/02/22 17:10:34;;;;;;;0.40;0.30;;;;;;;11.48;88.10;151564.06;10679330;27;20050;-77
2024/02/22 17:15:36;;;;;;;0.68;0.50;;;;;;;11.58;86.04;151589.91;10679676;27;20050;-78
2024/02/22 17:20:42;;;;;;;0.85;0.85;;;;;;;11.73;84.25;151626.06;10677288;27;20057;-77
2024/02/22 17:25:43;;;;;;;0.43;0.43;;;;;;;11.55;86.21;151580.84;10658046;27;20038;-77
2024/02/22 17:30:46;;;;;;;2.20;1.70;;;;;;;11.72;84.87;151624.78;10678526;27;20042;-78
2024/02/22 17:35:48;;;;;;;0.20;0.20;;;;;;;11.77;84.36;151637.69;10683085;27;20034;-78
2024/02/22 17:40:50;;;;;;;0.30;0.30;;;;;;;11.70;85.31;151618.34;10685460;27;20035;-76
2024/02/22 17:45:52;;;;;;;0.40;0.40;;;;;;;11.58;85.78;151589.91;10682330;27;20190;-77
2024/02/22 17:50:55;;;;;;;0.40;0.30;;;;;;;11.55;86.42;151582.19;10683143;27;20038;-79
2024/02/22 17:55:56;;;;;;;0.55;0.50;;;;;;;11.59;85.65;151591.19;10681712;27;20039;-77
2024/02/22 18:00:58;;;;;;;0.98;0.60;;;;;;;11.70;84.84;151618.34;10683007;27;20065;-77
2024/02/22 18:06:00;;;;;;;1.67;0.90;;;;;;;11.65;85.60;151605.44;10684434;27;20046;-76
2024/02/22 18:11:03;;;;;;;0.63;0.60;;;;;;;11.73;85.17;151626.06;10678988;27;20034;-77
2024/02/22 18:16:05;;;;;;;1.38;0.80;;;;;;;11.78;84.70;151639.03;10682596;27;20042;-78
2024/02/22 18:21:11;;;;;;;0.65;0.57;;;;;;;11.74;85.29;151628.69;10680776;27;20047;-77
2024/02/22 18:26:13;;;;;;;0.57;0.47;;;;;;;11.72;85.58;151623.50;10679953;27;20083;-77
2024/02/22 18:31:16;;;;;;;0.80;0.50;;;;;;;11.78;85.50;151639.03;10677493;27;20069;-77
2024/02/22 18:36:19;;;;;;;0.68;0.45;;;;;;;11.74;85.71;151628.69;10678601;27;20039;-77
2024/02/22 18:41:22;;;;;;;1.15;0.93;;;;;;;11.69;86.43;151615.78;10656917;27;20054;-78
2024/02/22 18:46:27;;;;;;;0.43;0.40;;;;;;;11.69;87.15;151615.78;10663390;27;20031;-76
2024/02/22 18:51:29;;;;;;;0.30;0.30;;;;;;;11.62;88.83;151598.94;10682257;27;20406;-77
2024/02/22 18:56:32;;;;;;;0.63;0.60;;;;;;;11.61;90.20;151596.38;10686073;27;20340;-77
2024/02/22 19:01:34;;;;;;;0.57;0.57;;;;;;;11.49;91.53;151565.34;10682538;27;20490;-76
2024/02/22 19:06:36;;;;;;;0.40;0.40;;;;;;;11.47;91.58;151560.22;10663005;27;20439;-77
2024/02/22 19:11:38;;;;;;;0.60;0.50;;;;;;;11.50;91.04;151569.22;10679044;27;20057;-77
2024/02/22 19:16:41;;;;;;;0.52;0.52;;;;;;;11.37;91.99;151536.91;10661901;27;20471;-78
2024/02/22 19:21:43;;;;;;;0.68;0.50;;;;;;;11.40;92.06;151542.09;10681078;27;20038;-79
2024/02/22 19:26:45;;;;;;;0.60;0.60;;;;;;;11.45;92.57;151555.00;10664449;27;20054;-78
2024/02/22 19:31:48;;;;;;;0.60;0.60;;;;;;;11.26;93.94;151508.50;10681100;27;20035;-77
2024/02/22 19:36:50;;;;;;;0.93;0.50;;;;;;;11.30;94.41;151518.84;10679331;27;20142;-79
2024/02/22 19:41:51;;;;;;;0.55;0.55;;;;;;;11.31;94.09;151520.13;10678376;27;20038;-78
2024/02/22 19:46:53;;;;;;;0.73;0.40;;;;;;;11.06;97.06;151456.81;10682053;27;20046;-78
2024/02/22 19:51:55;;;;;;;0.45;0.45;;;;;;;11.36;94.17;151533.03;10664630;27;20035;-79
2024/02/22 19:56:57;;;;;;;0.57;0.57;;;;;;;11.16;95.73;151481.41;10684948;27;20039;-79
2024/02/22 20:01:59;;;;;;;0.50;0.50;;;;;;;11.15;95.80;151480.06;10661393;27;20491;-78
2024/02/22 20:07:04;;;;;;;0.35;0.35;;;;;;;11.15;96.38;151478.78;10680681;27;20467;-79
2024/02/22 20:12:09;;;;;;;0.30;0.20;;;;;;;11.08;96.54;151463.31;10681084;27;20047;-79
2024/02/22 20:17:11;;;;;;;0.20;0.20;;;;;;;11.17;96.21;151485.25;10658691;27;20054;-78
2024/02/22 20:22:13;;;;;;;0.30;0.30;;;;;;;11.29;94.70;151515.00;10677290;27;20047;-79
2024/02/22 20:27:15;;;;;;;0.20;0.20;;;;;;;11.19;97.47;151489.13;10690069;27;20103;-79
2024/02/22 20:32:17;;;;;;;0.13;0.13;;;;;;;11.18;97.51;151486.56;10692144;27;20042;-80
2024/02/22 20:37:19;;;;;;;0.10;0.10;;;;;;;11.19;98.26;151490.41;10692361;27;20045;-79
2024/02/22 20:42:22;;;;;;;0.50;0.35;;;;;;;11.05;100.00;151454.25;10689913;27;20043;-79
2024/02/22 20:47:24;;;;;;;0.20;0.20;;;;;;;10.98;100.00;151437.47;10686371;27;20031;-78
2024/02/22 20:52:27;;;;;;;0.20;0.20;;;;;;;11.02;100.00;151447.81;10683880;27;20051;-77
2024/02/22 20:57:29;;;;;;;0.47;0.20;;;;;;;10.89;100.00;151414.25;10669101;27;20046;-78
2024/02/22 21:02:31;;;;;;;1.08;0.28;;;;;;;10.85;100.00;151405.19;10681753;27;20078;-76
2024/02/22 21:07:34;;;;;;;0.47;0.20;;;;;;;10.88;100.00;151411.63;10682205;27;20050;-77
2024/02/22 21:12:37;;;;;;;0.55;0.35;;;;;;;10.94;100.00;151427.16;10682135;27;20049;-78
2024/02/22 21:17:39;;;;;;;0.25;0.20;;;;;;;10.98;100.00;151436.16;10681266;27;20393;-76
2024/02/22 21:22:41;;;;;;;0.50;0.30;;;;;;;10.90;100.00;151416.81;10663307;27;20060;-77
2024/02/22 21:27:43;;;;;;;0.28;0.28;;;;;;;10.83;100.00;151400.00;10679094;27;20088;-77
2024/02/22 21:32:45;;;;;;;0.40;0.30;;;;;;;10.72;99.88;151371.63;10679801;27;20087;-78
2024/02/22 21:37:48;;;;;;;0.20;0.20;;;;;;;11.02;96.96;151447.81;10680207;27;20034;-79
2024/02/22 21:42:52;;;;;;;0.88;0.10;;;;;;;10.91;97.82;151419.38;10689785;27;20035;-78
2024/02/22 21:47:53;;;;;;;0.20;0.20;;;;;;;10.91;96.51;151419.38;10682742;27;20070;-79
2024/02/22 21:52:55;;;;;;;0.30;0.10;;;;;;;10.93;95.22;151423.25;10691048;27;20043;-78
2024/02/22 21:57:57;;;;;;;0.10;0.10;;;;;;;11.13;92.17;151473.63;10686379;27;20122;-78
2024/02/22 22:03:00;;;;;;;0.10;0.10;;;;;;;11.28;89.80;151512.38;10666085;27;20039;-78
2024/02/22 22:08:03;;;;;;;0.22;0.10;;;;;;;11.21;89.41;151495.59;10682878;27;20050;-78
2024/02/22 22:13:05;;;;;;;0.00;0.00;;;;;;;11.20;89.97;151491.69;10685639;27;20068;-79
2024/02/22 22:18:07;;;;;;;0.05;0.05;;;;;;;11.27;88.84;151509.81;10680024;27;20053;-78
2024/02/22 22:23:09;;;;;;;0.60;0.17;;;;;;;11.19;88.64;151489.13;10684622;27;20039;-79
2024/02/22 22:28:11;;;;;;;0.13;0.13;;;;;;;11.11;89.30;151471.06;10693744;27;20043;-78
2024/02/22 22:33:13;;;;;;;0.10;0.10;;;;;;;11.59;84.52;151592.47;10673204;27;20047;-79
2024/02/22 22:38:15;;;;;;;0.10;0.10;;;;;;;11.71;83.27;151622.22;10671040;27;20054;-78
2024/02/22 22:43:17;;;;;;;0.38;0.20;;;;;;;11.71;83.92;151620.91;10674747;27;20068;-79
2024/02/22 22:48:19;;;;;;;0.30;0.25;;;;;;;11.40;85.97;151542.09;10673731;27;20087;-78
2024/02/22 22:53:21;;;;;;;0.10;0.10;;;;;;;11.11;88.90;151471.06;10676672;27;20050;-80
2024/02/22 22:58:23;;;;;;;0.30;0.30;;;;;;;10.96;89.81;151431.00;10692194;27;20064;-79
2024/02/22 23:03:25;;;;;;;0.50;0.20;;;;;;;11.11;88.01;151471.06;10677549;27;20106;-79
2024/02/22 23:08:27;;;;;;;0.20;0.15;;;;;;;11.24;88.95;151503.31;10677275;27;20053;-79
2024/02/22 23:13:29;;;;;;;0.22;0.20;;;;;;;10.94;91.14;151427.16;10670545;27;20085;-77